sensor_id;sensor_type;location;lat;lon;timestamp;temperature;humidity
7163;DHT22;3623;47.098;15.446;2024-02-21T00:01:22;4.80;99.00
7163;DHT22;3623;47.098;15.446;2024-02-21T00:03:49;4.80;99.10
7163;DHT22;3623;47.098;15.446;2024-02-21T00:06:16;4.70;99.00
7163;DHT22;3623;47.098;15.446;2024-02-21T00:08:45;4.70;99.10
7163;DHT22;3623;47.098;15.446;2024-02-21T00:11:12;4.70;99.30
7163;DHT22;3623;47.098;15.446;2024-02-21T00:13:39;4.90;99.40
7163;DHT22;3623;47.098;15.446;2024-02-21T00:16:07;4.70;99.30
7163;DHT22;3623;47.098;15.446;2024-02-21T00:18:40;4.80;99.20
7163;DHT22;3623;47.098;15.446;2024-02-21T00:21:07;4.80;99.20
7163;DHT22;3623;47.098;15.446;2024-02-21T00:23:35;4.70;99.20
7163;DHT22;3623;47.098;15.446;2024-02-21T00:26:02;4.70;99.20
7163;DHT22;3623;47.098;15.446;2024-02-21T00:28:29;4.70;99.40
7163;DHT22;3623;47.098;15.446;2024-02-21T00:30:56;4.60;99.60
7163;DHT22;3623;47.098;15.446;2024-02-21T00:33:24;4.70;99.50
7163;DHT22;3623;47.098;15.446;2024-02-21T00:35:52;4.80;99.30
7163;DHT22;3623;47.098;15.446;2024-02-21T00:38:19;4.90;99.00
7163;DHT22;3623;47.098;15.446;2024-02-21T00:40:47;5.00;98.60
7163;DHT22;3623;47.098;15.446;2024-02-21T00:43:14;5.00;98.50
7163;DHT22;3623;47.098;15.446;2024-02-21T00:45:41;5.00;98.70
7163;DHT22;3623;47.098;15.446;2024-02-21T00:48:10;5.10;98.90
7163;DHT22;3623;47.098;15.446;2024-02-21T00:50:37;5.10;99.00
7163;DHT22;3623;47.098;15.446;2024-02-21T00:53:06;5.00;99.10
7163;DHT22;3623;47.098;15.446;2024-02-21T00:55:34;5.00;99.30
7163;DHT22;3623;47.098;15.446;2024-02-21T00:58:22;5.00;99.30
7163;DHT22;3623;47.098;15.446;2024-02-21T01:00:49;5.00;99.20
7163;DHT22;3623;47.098;15.446;2024-02-21T01:03:16;5.00;99.60
7163;DHT22;3623;47.098;15.446;2024-02-21T01:05:43;4.80;99.70
7163;DHT22;3623;47.098;15.446;2024-02-21T01:08:13;4.60;99.90
7163;DHT22;3623;47.098;15.446;2024-02-21T01:10:40;4.60;99.90
7163;DHT22;3623;47.098;15.446;2024-02-21T01:13:07;4.50;99.90
7163;DHT22;3623;47.098;15.446;2024-02-21T01:15:35;4.40;99.90
7163;DHT22;3623;47.098;15.446;2024-02-21T01:18:04;4.30;99.90
7163;DHT22;3623;47.098;15.446;2024-02-21T01:20:32;4.30;99.90
7163;DHT22;3623;47.098;15.446;2024-02-21T01:22:59;4.20;99.90
7163;DHT22;3623;47.098;15.446;2024-02-21T01:25:27;4.10;99.90
7163;DHT22;3623;47.098;15.446;2024-02-21T01:27:56;4.10;99.90
7163;DHT22;3623;47.098;15.446;2024-02-21T01:30:23;4.10;99.90
7163;DHT22;3623;47.098;15.446;2024-02-21T01:32:50;4.10;99.90
7163;DHT22;3623;47.098;15.446;2024-02-21T01:35:17;4.90;99.90
7163;DHT22;3623;47.098;15.446;2024-02-21T01:37:50;4.10;99.90
7163;DHT22;3623;47.098;15.446;2024-02-21T01:40:18;4.20;99.90
7163;DHT22;3623;47.098;15.446;2024-02-21T01:42:46;4.20;99.90
7163;DHT22;3623;47.098;15.446;2024-02-21T01:45:14;4.40;99.90
7163;DHT22;3623;47.098;15.446;2024-02-21T01:47:56;4.30;99.90
7163;DHT22;3623;47.098;15.446;2024-02-21T01:50:24;4.30;99.90
7163;DHT22;3623;47.098;15.446;2024-02-21T01:52:51;4.40;99.90
7163;DHT22;3623;47.098;15.446;2024-02-21T01:55:17;4.50;99.90
7163;DHT22;3623;47.098;15.446;2024-02-21T01:57:48;4.60;99.90
7163;DHT22;3623;47.098;15.446;2024-02-21T02:00:16;4.70;99.90
7163;DHT22;3623;47.098;15.446;2024-02-21T02:02:44;4.60;99.90
7163;DHT22;3623;47.098;15.446;2024-02-21T02:05:12;4.80;99.90
7163;DHT22;3623;47.098;15.446;2024-02-21T02:07:48;4.80;99.90
7163;DHT22;3623;47.098;15.446;2024-02-21T02:10:15;4.80;99.90
7163;DHT22;3623;47.098;15.446;2024-02-21T02:12:43;4.90;99.90
7163;DHT22;3623;47.098;15.446;2024-02-21T02:15:11;5.00;99.90
7163;DHT22;3623;47.098;15.446;2024-02-21T02:17:39;4.90;99.90
7163;DHT22;3623;47.098;15.446;2024-02-21T02:20:07;4.90;99.90
7163;DHT22;3623;47.098;15.446;2024-02-21T02:22:37;4.90;99.90
7163;DHT22;3623;47.098;15.446;2024-02-21T02:25:07;4.90;99.90
7163;DHT22;3623;47.098;15.446;2024-02-21T02:27:41;4.70;99.90
7163;DHT22;3623;47.098;15.446;2024-02-21T02:30:11;4.50;99.90
7163;DHT22;3623;47.098;15.446;2024-02-21T02:32:38;4.50;99.90
7163;DHT22;3623;47.098;15.446;2024-02-21T02:35:06;4.50;99.90
7163;DHT22;3623;47.098;15.446;2024-02-21T02:37:33;4.60;99.90
7163;DHT22;3623;47.098;15.446;2024-02-21T02:40:00;4.70;99.90
7163;DHT22;3623;47.098;15.446;2024-02-21T02:42:29;4.80;99.90
7163;DHT22;3623;47.098;15.446;2024-02-21T02:44:56;4.90;99.90
7163;DHT22;3623;47.098;15.446;2024-02-21T02:47:30;4.90;99.90
7163;DHT22;3623;47.098;15.446;2024-02-21T02:49:57;4.80;99.90
7163;DHT22;3623;47.098;15.446;2024-02-21T02:52:24;4.70;99.90
7163;DHT22;3623;47.098;15.446;2024-02-21T02:54:51;4.50;99.90
7163;DHT22;3623;47.098;15.446;2024-02-21T02:57:22;4.50;99.90
7163;DHT22;3623;47.098;15.446;2024-02-21T02:59:51;4.40;99.90
7163;DHT22;3623;47.098;15.446;2024-02-21T03:02:19;4.40;99.90
7163;DHT22;3623;47.098;15.446;2024-02-21T03:04:46;4.40;99.90
7163;DHT22;3623;47.098;15.446;2024-02-21T03:07:16;4.40;99.90
7163;DHT22;3623;47.098;15.446;2024-02-21T03:09:43;4.60;99.90
7163;DHT22;3623;47.098;15.446;2024-02-21T03:12:10;4.50;99.90
7163;DHT22;3623;47.098;15.446;2024-02-21T03:14:37;4.50;99.90
7163;DHT22;3623;47.098;15.446;2024-02-21T03:17:06;4.50;99.90
7163;DHT22;3623;47.098;15.446;2024-02-21T03:19:33;4.40;99.90
7163;DHT22;3623;47.098;15.446;2024-02-21T03:22:00;4.40;99.90
7163;DHT22;3623;47.098;15.446;2024-02-21T03:24:27;4.40;99.90
7163;DHT22;3623;47.098;15.446;2024-02-21T03:27:00;4.40;99.90
7163;DHT22;3623;47.098;15.446;2024-02-21T03:29:27;4.40;99.90
7163;DHT22;3623;47.098;15.446;2024-02-21T03:31:55;4.40;99.90
7163;DHT22;3623;47.098;15.446;2024-02-21T03:34:23;4.30;99.90
7163;DHT22;3623;47.098;15.446;2024-02-21T03:36:51;4.20;99.90
7163;DHT22;3623;47.098;15.446;2024-02-21T03:39:19;4.20;99.90
7163;DHT22;3623;47.098;15.446;2024-02-21T03:41:47;4.20;99.90
7163;DHT22;3623;47.098;15.446;2024-02-21T03:44:14;4.20;99.90
7163;DHT22;3623;47.098;15.446;2024-02-21T03:46:48;4.20;99.90
7163;DHT22;3623;47.098;15.446;2024-02-21T03:49:15;4.20;99.90
7163;DHT22;3623;47.098;15.446;2024-02-21T03:51:45;4.20;99.90
7163;DHT22;3623;47.098;15.446;2024-02-21T03:54:12;4.40;99.90
7163;DHT22;3623;47.098;15.446;2024-02-21T03:56:45;4.40;99.90
7163;DHT22;3623;47.098;15.446;2024-02-21T03:59:14;4.50;99.90
7163;DHT22;3623;47.098;15.446;2024-02-21T04:01:41;4.40;99.90
7163;DHT22;3623;47.098;15.446;2024-02-21T04:04:09;4.30;99.90
7163;DHT22;3623;47.098;15.446;2024-02-21T04:06:48;4.20;99.90
7163;DHT22;3623;47.098;15.446;2024-02-21T04:09:16;4.20;99.90
7163;DHT22;3623;47.098;15.446;2024-02-21T04:11:43;4.20;99.90
7163;DHT22;3623;47.098;15.446;2024-02-21T04:14:10;4.10;99.90
7163;DHT22;3623;47.098;15.446;2024-02-21T04:16:42;4.00;99.90
7163;DHT22;3623;47.098;15.446;2024-02-21T04:19:09;3.90;99.90
7163;DHT22;3623;47.098;15.446;2024-02-21T04:21:36;3.80;99.90
7163;DHT22;3623;47.098;15.446;2024-02-21T04:24:05;3.80;99.90
7163;DHT22;3623;47.098;15.446;2024-02-21T04:26:33;3.70;99.90
7163;DHT22;3623;47.098;15.446;2024-02-21T04:29:00;3.70;99.90
7163;DHT22;3623;47.098;15.446;2024-02-21T04:31:27;3.80;99.90
7163;DHT22;3623;47.098;15.446;2024-02-21T04:33:55;3.70;99.90
7163;DHT22;3623;47.098;15.446;2024-02-21T04:36:22;3.70;99.90
7163;DHT22;3623;47.098;15.446;2024-02-21T04:38:52;3.70;99.90
7163;DHT22;3623;47.098;15.446;2024-02-21T04:41:21;3.70;99.90
7163;DHT22;3623;47.098;15.446;2024-02-21T04:43:48;3.70;99.90
7163;DHT22;3623;47.098;15.446;2024-02-21T04:46:15;3.70;99.90
7163;DHT22;3623;47.098;15.446;2024-02-21T04:48:43;3.70;99.90
7163;DHT22;3623;47.098;15.446;2024-02-21T04:51:11;3.60;99.90
7163;DHT22;3623;47.098;15.446;2024-02-21T04:53:38;3.70;99.90
7163;DHT22;3623;47.098;15.446;2024-02-21T04:56:06;3.70;99.90
7163;DHT22;3623;47.098;15.446;2024-02-21T04:58:51;3.80;99.90
7163;DHT22;3623;47.098;15.446;2024-02-21T05:01:18;3.80;99.90
7163;DHT22;3623;47.098;15.446;2024-02-21T05:03:46;3.90;99.90
7163;DHT22;3623;47.098;15.446;2024-02-21T05:06:13;4.00;99.90
7163;DHT22;3623;47.098;15.446;2024-02-21T05:08:43;4.00;99.90
7163;DHT22;3623;47.098;15.446;2024-02-21T05:11:10;4.00;99.90
7163;DHT22;3623;47.098;15.446;2024-02-21T05:13:38;3.90;99.90
7163;DHT22;3623;47.098;15.446;2024-02-21T05:16:06;3.90;99.90
7163;DHT22;3623;47.098;15.446;2024-02-21T05:18:40;4.00;99.90
7163;DHT22;3623;47.098;15.446;2024-02-21T05:21:09;3.70;99.90
7163;DHT22;3623;47.098;15.446;2024-02-21T05:23:36;3.70;99.90
7163;DHT22;3623;47.098;15.446;2024-02-21T05:26:05;3.80;99.90
7163;DHT22;3623;47.098;15.446;2024-02-21T05:28:36;3.70;99.90
7163;DHT22;3623;47.098;15.446;2024-02-21T05:31:04;3.60;99.90
7163;DHT22;3623;47.098;15.446;2024-02-21T05:33:33;3.60;99.90
7163;DHT22;3623;47.098;15.446;2024-02-21T05:36:00;3.50;99.90
7163;DHT22;3623;47.098;15.446;2024-02-21T05:38:28;3.50;99.90
7163;DHT22;3623;47.098;15.446;2024-02-21T05:40:55;3.40;99.90
7163;DHT22;3623;47.098;15.446;2024-02-21T05:43:22;3.30;99.90
7163;DHT22;3623;47.098;15.446;2024-02-21T05:45:50;3.10;99.90
7163;DHT22;3623;47.098;15.446;2024-02-21T05:48:21;3.30;99.90
7163;DHT22;3623;47.098;15.446;2024-02-21T05:50:50;3.10;99.90
7163;DHT22;3623;47.098;15.446;2024-02-21T05:53:17;3.20;99.90
7163;DHT22;3623;47.098;15.446;2024-02-21T05:55:44;3.10;99.90
7163;DHT22;3623;47.098;15.446;2024-02-21T05:58:13;3.10;99.90
7163;DHT22;3623;47.098;15.446;2024-02-21T06:00:40;3.00;99.90
7163;DHT22;3623;47.098;15.446;2024-02-21T06:03:07;3.00;99.90
7163;DHT22;3623;47.098;15.446;2024-02-21T06:05:37;3.10;99.90
7163;DHT22;3623;47.098;15.446;2024-02-21T06:08:19;3.10;99.90
7163;DHT22;3623;47.098;15.446;2024-02-21T06:10:47;3.10;99.90
7163;DHT22;3623;47.098;15.446;2024-02-21T06:13:14;3.50;99.90
7163;DHT22;3623;47.098;15.446;2024-02-21T06:15:41;3.30;99.90
7163;DHT22;3623;47.098;15.446;2024-02-21T06:18:10;3.40;99.90
7163;DHT22;3623;47.098;15.446;2024-02-21T06:20:37;3.50;99.90
7163;DHT22;3623;47.098;15.446;2024-02-21T06:23:06;3.60;99.90
7163;DHT22;3623;47.098;15.446;2024-02-21T06:25:34;3.60;99.90
7163;DHT22;3623;47.098;15.446;2024-02-21T06:28:09;3.70;99.90
7163;DHT22;3623;47.098;15.446;2024-02-21T06:30:36;3.90;99.90
7163;DHT22;3623;47.098;15.446;2024-02-21T06:33:04;3.80;99.90
7163;DHT22;3623;47.098;15.446;2024-02-21T06:35:31;4.00;99.90
7163;DHT22;3623;47.098;15.446;2024-02-21T06:38:04;4.00;99.90
7163;DHT22;3623;47.098;15.446;2024-02-21T06:40:35;4.10;99.90
7163;DHT22;3623;47.098;15.446;2024-02-21T06:43:05;4.20;99.90
7163;DHT22;3623;47.098;15.446;2024-02-21T06:45:32;4.20;99.90
7163;DHT22;3623;47.098;15.446;2024-02-21T06:48:03;4.20;99.90
7163;DHT22;3623;47.098;15.446;2024-02-21T06:50:33;4.20;99.90
7163;DHT22;3623;47.098;15.446;2024-02-21T06:53:00;4.10;99.90
7163;DHT22;3623;47.098;15.446;2024-02-21T06:55:27;4.30;99.90
7163;DHT22;3623;47.098;15.446;2024-02-21T06:57:59;4.30;99.90
7163;DHT22;3623;47.098;15.446;2024-02-21T07:00:27;4.40;99.90
7163;DHT22;3623;47.098;15.446;2024-02-21T07:02:54;4.60;99.90
7163;DHT22;3623;47.098;15.446;2024-02-21T07:05:23;4.80;99.90
7163;DHT22;3623;47.098;15.446;2024-02-21T07:07:51;4.90;99.90
7163;DHT22;3623;47.098;15.446;2024-02-21T07:10:18;4.90;99.90
7163;DHT22;3623;47.098;15.446;2024-02-21T07:12:45;5.20;99.90
7163;DHT22;3623;47.098;15.446;2024-02-21T07:15:14;5.20;99.90
7163;DHT22;3623;47.098;15.446;2024-02-21T07:17:41;5.20;99.90
7163;DHT22;3623;47.098;15.446;2024-02-21T07:20:09;5.30;99.90
7163;DHT22;3623;47.098;15.446;2024-02-21T07:22:36;5.30;99.90
7163;DHT22;3623;47.098;15.446;2024-02-21T07:25:05;5.30;99.90
7163;DHT22;3623;47.098;15.446;2024-02-21T07:27:40;5.30;99.90
7163;DHT22;3623;47.098;15.446;2024-02-21T07:30:11;5.30;99.90
7163;DHT22;3623;47.098;15.446;2024-02-21T07:32:39;5.30;99.90
7163;DHT22;3623;47.098;15.446;2024-02-21T07:35:07;5.20;99.90
7163;DHT22;3623;47.098;15.446;2024-02-21T07:37:38;5.20;99.90
7163;DHT22;3623;47.098;15.446;2024-02-21T07:40:06;5.30;99.90
7163;DHT22;3623;47.098;15.446;2024-02-21T07:42:39;5.30;99.90
7163;DHT22;3623;47.098;15.446;2024-02-21T07:45:06;5.80;99.90
7163;DHT22;3623;47.098;15.446;2024-02-21T07:47:34;5.50;99.90
7163;DHT22;3623;47.098;15.446;2024-02-21T07:50:03;5.70;99.90
7163;DHT22;3623;47.098;15.446;2024-02-21T07:52:32;5.80;99.90
7163;DHT22;3623;47.098;15.446;2024-02-21T07:54:59;6.00;99.90
7163;DHT22;3623;47.098;15.446;2024-02-21T07:57:26;6.10;99.90
7163;DHT22;3623;47.098;15.446;2024-02-21T07:59:54;6.20;99.90
7163;DHT22;3623;47.098;15.446;2024-02-21T08:02:21;6.30;99.90
7163;DHT22;3623;47.098;15.446;2024-02-21T08:04:48;6.50;99.90
7163;DHT22;3623;47.098;15.446;2024-02-21T08:07:17;6.70;99.90
7163;DHT22;3623;47.098;15.446;2024-02-21T08:09:44;6.90;99.90
7163;DHT22;3623;47.098;15.446;2024-02-21T08:12:11;7.10;99.90
7163;DHT22;3623;47.098;15.446;2024-02-21T08:14:38;7.30;99.90
7163;DHT22;3623;47.098;15.446;2024-02-21T08:17:06;7.30;99.90
7163;DHT22;3623;47.098;15.446;2024-02-21T08:19:33;7.40;99.90
7163;DHT22;3623;47.098;15.446;2024-02-21T08:22:00;7.40;99.90
7163;DHT22;3623;47.098;15.446;2024-02-21T08:24:30;7.50;99.90
7163;DHT22;3623;47.098;15.446;2024-02-21T08:26:57;7.60;99.90
7163;DHT22;3623;47.098;15.446;2024-02-21T08:29:24;7.50;99.90
7163;DHT22;3623;47.098;15.446;2024-02-21T08:31:53;7.50;99.90
7163;DHT22;3623;47.098;15.446;2024-02-21T08:34:20;7.60;99.90
7163;DHT22;3623;47.098;15.446;2024-02-21T08:36:47;7.60;99.90
7163;DHT22;3623;47.098;15.446;2024-02-21T08:39:14;7.60;99.90
7163;DHT22;3623;47.098;15.446;2024-02-21T08:41:43;7.50;99.90
7163;DHT22;3623;47.098;15.446;2024-02-21T08:44:10;7.50;99.90
7163;DHT22;3623;47.098;15.446;2024-02-21T08:46:38;7.40;99.90
7163;DHT22;3623;47.098;15.446;2024-02-21T08:49:06;7.30;99.90
7163;DHT22;3623;47.098;15.446;2024-02-21T08:51:33;7.20;99.90
7163;DHT22;3623;47.098;15.446;2024-02-21T08:54:01;7.20;99.90
7163;DHT22;3623;47.098;15.446;2024-02-21T08:56:30;7.40;99.90
7163;DHT22;3623;47.098;15.446;2024-02-21T08:59:02;7.50;99.90
7163;DHT22;3623;47.098;15.446;2024-02-21T09:01:29;7.60;99.90
7163;DHT22;3623;47.098;15.446;2024-02-21T09:03:56;7.80;99.90
7163;DHT22;3623;47.098;15.446;2024-02-21T09:06:24;8.10;99.90
7163;DHT22;3623;47.098;15.446;2024-02-21T09:08:51;8.30;99.80
7163;DHT22;3623;47.098;15.446;2024-02-21T09:11:18;8.40;98.40
7163;DHT22;3623;47.098;15.446;2024-02-21T09:13:45;8.30;98.00
7163;DHT22;3623;47.098;15.446;2024-02-21T09:16:14;8.50;99.20
7163;DHT22;3623;47.098;15.446;2024-02-21T09:18:41;8.70;98.70
7163;DHT22;3623;47.098;15.446;2024-02-21T09:21:08;8.90;98.10
7163;DHT22;3623;47.098;15.446;2024-02-21T09:23:35;9.10;97.10
7163;DHT22;3623;47.098;15.446;2024-02-21T09:26:03;9.30;96.50
7163;DHT22;3623;47.098;15.446;2024-02-21T09:28:33;9.60;96.50
7163;DHT22;3623;47.098;15.446;2024-02-21T09:31:00;9.80;95.30
7163;DHT22;3623;47.098;15.446;2024-02-21T09:33:29;9.80;95.20
7163;DHT22;3623;47.098;15.446;2024-02-21T09:35:56;9.50;95.10
7163;DHT22;3623;47.098;15.446;2024-02-21T09:38:23;9.40;95.40
7163;DHT22;3623;47.098;15.446;2024-02-21T09:40:54;9.50;96.10
7163;DHT22;3623;47.098;15.446;2024-02-21T09:43:23;9.70;95.10
7163;DHT22;3623;47.098;15.446;2024-02-21T09:45:51;9.60;94.90
7163;DHT22;3623;47.098;15.446;2024-02-21T09:48:34;9.70;95.50
7163;DHT22;3623;47.098;15.446;2024-02-21T09:51:06;9.90;95.10
7163;DHT22;3623;47.098;15.446;2024-02-21T09:53:34;9.90;94.70
7163;DHT22;3623;47.098;15.446;2024-02-21T09:56:05;9.90;94.60
7163;DHT22;3623;47.098;15.446;2024-02-21T09:58:34;10.10;94.30
7163;DHT22;3623;47.098;15.446;2024-02-21T10:01:02;10.20;94.60
7163;DHT22;3623;47.098;15.446;2024-02-21T10:03:34;10.20;93.80
7163;DHT22;3623;47.098;15.446;2024-02-21T10:06:01;10.50;93.70
7163;DHT22;3623;47.098;15.446;2024-02-21T10:08:28;10.50;89.80
7163;DHT22;3623;47.098;15.446;2024-02-21T10:10:55;10.50;91.20
7163;DHT22;3623;47.098;15.446;2024-02-21T10:13:26;10.50;91.00
7163;DHT22;3623;47.098;15.446;2024-02-21T10:16:04;10.60;91.40
7163;DHT22;3623;47.098;15.446;2024-02-21T10:18:39;10.40;89.30
7163;DHT22;3623;47.098;15.446;2024-02-21T10:21:06;10.90;90.90
7163;DHT22;3623;47.098;15.446;2024-02-21T10:23:51;11.40;90.10
7163;DHT22;3623;47.098;15.446;2024-02-21T10:26:19;11.70;87.40
7163;DHT22;3623;47.098;15.446;2024-02-21T10:28:47;12.30;87.80
7163;DHT22;3623;47.098;15.446;2024-02-21T10:31:24;12.80;88.00
7163;DHT22;3623;47.098;15.446;2024-02-21T10:33:56;13.20;85.10
7163;DHT22;3623;47.098;15.446;2024-02-21T10:36:24;13.50;87.00
7163;DHT22;3623;47.098;15.446;2024-02-21T10:38:51;13.80;84.20
7163;DHT22;3623;47.098;15.446;2024-02-21T10:41:20;14.30;80.50
7163;DHT22;3623;47.098;15.446;2024-02-21T10:43:50;14.00;82.00
7163;DHT22;3623;47.098;15.446;2024-02-21T10:46:19;13.10;81.40
7163;DHT22;3623;47.098;15.446;2024-02-21T10:48:48;12.60;83.50
7163;DHT22;3623;47.098;15.446;2024-02-21T10:51:20;12.70;86.00
7163;DHT22;3623;47.098;15.446;2024-02-21T10:53:54;13.00;85.30
7163;DHT22;3623;47.098;15.446;2024-02-21T10:56:29;13.30;84.20
7163;DHT22;3623;47.098;15.446;2024-02-21T10:58:58;14.00;83.60
7163;DHT22;3623;47.098;15.446;2024-02-21T11:01:26;14.70;82.90
7163;DHT22;3623;47.098;15.446;2024-02-21T11:03:56;15.90;81.40
7163;DHT22;3623;47.098;15.446;2024-02-21T11:06:26;17.10;79.10
7163;DHT22;3623;47.098;15.446;2024-02-21T11:09:02;17.20;77.00
7163;DHT22;3623;47.098;15.446;2024-02-21T11:11:30;17.70;73.20
7163;DHT22;3623;47.098;15.446;2024-02-21T11:14:06;16.80;73.00
7163;DHT22;3623;47.098;15.446;2024-02-21T11:16:38;16.50;74.70
7163;DHT22;3623;47.098;15.446;2024-02-21T11:19:06;14.80;74.50
7163;DHT22;3623;47.098;15.446;2024-02-21T11:21:36;14.70;75.10
7163;DHT22;3623;47.098;15.446;2024-02-21T11:24:04;14.90;74.60
7163;DHT22;3623;47.098;15.446;2024-02-21T11:26:31;15.20;76.70
7163;DHT22;3623;47.098;15.446;2024-02-21T11:28:59;16.50;77.80
7163;DHT22;3623;47.098;15.446;2024-02-21T11:31:27;17.30;75.40
7163;DHT22;3623;47.098;15.446;2024-02-21T11:33:54;17.20;71.90
7163;DHT22;3623;47.098;15.446;2024-02-21T11:36:25;17.50;73.30
7163;DHT22;3623;47.098;15.446;2024-02-21T11:38:54;17.30;73.40
7163;DHT22;3623;47.098;15.446;2024-02-21T11:41:21;16.60;72.50
7163;DHT22;3623;47.098;15.446;2024-02-21T11:43:49;15.30;75.50
7163;DHT22;3623;47.098;15.446;2024-02-21T11:46:17;14.40;74.20
7163;DHT22;3623;47.098;15.446;2024-02-21T11:48:45;14.30;74.70
7163;DHT22;3623;47.098;15.446;2024-02-21T11:51:22;14.10;74.60
7163;DHT22;3623;47.098;15.446;2024-02-21T11:53:51;14.40;75.10
7163;DHT22;3623;47.098;15.446;2024-02-21T11:56:20;14.30;77.30
7163;DHT22;3623;47.098;15.446;2024-02-21T11:58:48;14.20;77.20
7163;DHT22;3623;47.098;15.446;2024-02-21T12:01:16;14.00;77.90
7163;DHT22;3623;47.098;15.446;2024-02-21T12:03:43;14.00;78.30
7163;DHT22;3623;47.098;15.446;2024-02-21T12:06:16;13.60;75.10
7163;DHT22;3623;47.098;15.446;2024-02-21T12:08:47;13.70;79.40
7163;DHT22;3623;47.098;15.446;2024-02-21T12:11:21;13.90;77.60
7163;DHT22;3623;47.098;15.446;2024-02-21T12:13:58;13.70;73.80
7163;DHT22;3623;47.098;15.446;2024-02-21T12:16:27;14.00;77.90
7163;DHT22;3623;47.098;15.446;2024-02-21T12:18:56;14.40;75.50
7163;DHT22;3623;47.098;15.446;2024-02-21T12:21:27;14.20;74.20
7163;DHT22;3623;47.098;15.446;2024-02-21T12:23:58;14.10;74.10
7163;DHT22;3623;47.098;15.446;2024-02-21T12:26:27;14.40;74.10
7163;DHT22;3623;47.098;15.446;2024-02-21T12:28:54;14.60;74.40
7163;DHT22;3623;47.098;15.446;2024-02-21T12:31:21;15.90;76.30
7163;DHT22;3623;47.098;15.446;2024-02-21T12:33:48;17.40;73.50
7163;DHT22;3623;47.098;15.446;2024-02-21T12:36:18;18.50;73.10
7163;DHT22;3623;47.098;15.446;2024-02-21T12:38:45;19.60;69.20
7163;DHT22;3623;47.098;15.446;2024-02-21T12:41:12;20.40;68.30
7163;DHT22;3623;47.098;15.446;2024-02-21T12:43:41;20.20;68.10
7163;DHT22;3623;47.098;15.446;2024-02-21T12:46:08;20.90;69.10
7163;DHT22;3623;47.098;15.446;2024-02-21T12:48:35;21.50;66.90
7163;DHT22;3623;47.098;15.446;2024-02-21T12:51:02;20.70;67.60
7163;DHT22;3623;47.098;15.446;2024-02-21T12:53:30;19.70;65.60
7163;DHT22;3623;47.098;15.446;2024-02-21T12:56:00;18.50;66.40
7163;DHT22;3623;47.098;15.446;2024-02-21T12:58:30;18.20;68.90
7163;DHT22;3623;47.098;15.446;2024-02-21T13:00:59;18.10;68.40
7163;DHT22;3623;47.098;15.446;2024-02-21T13:03:27;18.40;68.80
7163;DHT22;3623;47.098;15.446;2024-02-21T13:05:56;19.10;68.00
7163;DHT22;3623;47.098;15.446;2024-02-21T13:08:24;19.60;68.70
7163;DHT22;3623;47.098;15.446;2024-02-21T13:10:52;21.10;66.90
7163;DHT22;3623;47.098;15.446;2024-02-21T13:13:19;19.90;64.30
7163;DHT22;3623;47.098;15.446;2024-02-21T13:15:46;18.90;66.20
7163;DHT22;3623;47.098;15.446;2024-02-21T13:18:15;17.90;68.10
7163;DHT22;3623;47.098;15.446;2024-02-21T13:20:42;16.70;69.80
7163;DHT22;3623;47.098;15.446;2024-02-21T13:23:09;16.30;71.90
7163;DHT22;3623;47.098;15.446;2024-02-21T13:25:36;16.30;71.70
7163;DHT22;3623;47.098;15.446;2024-02-21T13:28:04;16.80;70.80
7163;DHT22;3623;47.098;15.446;2024-02-21T13:30:31;17.40;70.50
7163;DHT22;3623;47.098;15.446;2024-02-21T13:32:58;18.60;71.20
7163;DHT22;3623;47.098;15.446;2024-02-21T13:35:26;18.10;68.20
7163;DHT22;3623;47.098;15.446;2024-02-21T13:37:55;17.30;68.50
7163;DHT22;3623;47.098;15.446;2024-02-21T13:40:22;16.90;70.20
7163;DHT22;3623;47.098;15.446;2024-02-21T13:42:51;17.00;72.20
7163;DHT22;3623;47.098;15.446;2024-02-21T13:45:19;17.70;69.50
7163;DHT22;3623;47.098;15.446;2024-02-21T13:47:48;17.90;69.80
7163;DHT22;3623;47.098;15.446;2024-02-21T13:50:15;17.60;69.00
7163;DHT22;3623;47.098;15.446;2024-02-21T13:52:44;16.30;68.20
7163;DHT22;3623;47.098;15.446;2024-02-21T13:55:12;15.60;70.60
7163;DHT22;3623;47.098;15.446;2024-02-21T13:57:39;15.20;70.50
7163;DHT22;3623;47.098;15.446;2024-02-21T14:00:08;15.10;71.20
7163;DHT22;3623;47.098;15.446;2024-02-21T14:02:36;14.80;70.80
7163;DHT22;3623;47.098;15.446;2024-02-21T14:05:05;14.70;72.50
7163;DHT22;3623;47.098;15.446;2024-02-21T14:07:32;14.50;73.80
7163;DHT22;3623;47.098;15.446;2024-02-21T14:10:01;14.30;72.40
7163;DHT22;3623;47.098;15.446;2024-02-21T14:12:29;14.20;74.10
7163;DHT22;3623;47.098;15.446;2024-02-21T14:14:57;14.20;73.50
7163;DHT22;3623;47.098;15.446;2024-02-21T14:17:25;13.80;73.80
7163;DHT22;3623;47.098;15.446;2024-02-21T14:19:52;13.60;73.50
7163;DHT22;3623;47.098;15.446;2024-02-21T14:22:19;13.40;75.80
7163;DHT22;3623;47.098;15.446;2024-02-21T14:24:46;13.60;76.00
7163;DHT22;3623;47.098;15.446;2024-02-21T14:27:16;13.60;76.70
7163;DHT22;3623;47.098;15.446;2024-02-21T14:29:43;13.50;75.60
7163;DHT22;3623;47.098;15.446;2024-02-21T14:32:13;13.30;74.50
7163;DHT22;3623;47.098;15.446;2024-02-21T14:34:40;13.20;75.80
7163;DHT22;3623;47.098;15.446;2024-02-21T14:37:07;13.10;74.50
7163;DHT22;3623;47.098;15.446;2024-02-21T14:39:34;12.90;74.70
7163;DHT22;3623;47.098;15.446;2024-02-21T14:42:01;12.80;75.40
7163;DHT22;3623;47.098;15.446;2024-02-21T14:44:30;12.90;78.20
7163;DHT22;3623;47.098;15.446;2024-02-21T14:46:57;13.00;78.00
7163;DHT22;3623;47.098;15.446;2024-02-21T14:49:24;13.00;77.40
7163;DHT22;3623;47.098;15.446;2024-02-21T14:51:53;12.90;75.70
7163;DHT22;3623;47.098;15.446;2024-02-21T14:54:20;12.90;77.30
7163;DHT22;3623;47.098;15.446;2024-02-21T14:56:49;13.00;77.30
7163;DHT22;3623;47.098;15.446;2024-02-21T14:59:16;13.00;77.60
7163;DHT22;3623;47.098;15.446;2024-02-21T15:01:45;12.90;79.20
7163;DHT22;3623;47.098;15.446;2024-02-21T15:04:12;13.00;78.70
7163;DHT22;3623;47.098;15.446;2024-02-21T15:06:40;12.90;78.70
7163;DHT22;3623;47.098;15.446;2024-02-21T15:09:07;12.90;78.30
7163;DHT22;3623;47.098;15.446;2024-02-21T15:11:34;12.90;78.00
7163;DHT22;3623;47.098;15.446;2024-02-21T15:14:01;12.80;78.30
7163;DHT22;3623;47.098;15.446;2024-02-21T15:16:28;12.80;78.20
7163;DHT22;3623;47.098;15.446;2024-02-21T15:18:57;12.90;79.00
7163;DHT22;3623;47.098;15.446;2024-02-21T15:21:24;12.90;78.30
7163;DHT22;3623;47.098;15.446;2024-02-21T15:23:51;13.00;79.10
7163;DHT22;3623;47.098;15.446;2024-02-21T15:26:18;12.80;78.60
7163;DHT22;3623;47.098;15.446;2024-02-21T15:28:46;12.70;78.30
7163;DHT22;3623;47.098;15.446;2024-02-21T15:31:20;12.60;79.10
7163;DHT22;3623;47.098;15.446;2024-02-21T15:33:49;12.60;78.30
7163;DHT22;3623;47.098;15.446;2024-02-21T15:36:18;12.40;79.90
7163;DHT22;3623;47.098;15.446;2024-02-21T15:38:46;12.30;79.30
7163;DHT22;3623;47.098;15.446;2024-02-21T15:41:13;12.20;80.70
7163;DHT22;3623;47.098;15.446;2024-02-21T15:43:40;12.10;78.90
7163;DHT22;3623;47.098;15.446;2024-02-21T15:46:11;12.00;78.80
7163;DHT22;3623;47.098;15.446;2024-02-21T15:48:38;11.90;78.60
7163;DHT22;3623;47.098;15.446;2024-02-21T15:51:05;11.80;78.80
7163;DHT22;3623;47.098;15.446;2024-02-21T15:53:34;11.80;78.80
7163;DHT22;3623;47.098;15.446;2024-02-21T15:56:03;11.80;78.90
7163;DHT22;3623;47.098;15.446;2024-02-21T15:58:31;11.70;78.80
7163;DHT22;3623;47.098;15.446;2024-02-21T16:00:58;13.10;81.20
7163;DHT22;3623;47.098;15.446;2024-02-21T16:03:25;11.50;79.10